Time;durP1;ratioP1;P1;durP2;ratioP2;P2;SDS_P1;SDS_P2;PMS_P1;PMS_P2;Temp;Humidity;BMP_temperature;BMP_pressure;BME280_temperature;BME280_humidity;BME280_pressure;Samples;Min_cycle;Max_cycle;Signal;HPM_P1;HPM_P2
2023/04/13 00:00:52;;;;;;;24.77;4.97;;;15.10;57.00;;;;;;5099863;28;20687;-89
2023/04/13 00:03:19;;;;;;;23.70;5.50;;;15.20;57.20;;;;;;5113493;28;20207;-87
2023/04/13 00:05:50;;;;;;;14.97;4.37;;;15.20;57.20;;;;;;5091295;28;20198;-91
2023/04/13 00:08:17;;;;;;;25.73;5.43;;;15.20;57.20;;;;;;5094202;28;20244;-89
2023/04/13 00:10:44;;;;;;;24.10;5.70;;;15.20;57.20;;;;;;5087590;28;20681;-88
2023/04/13 00:13:11;;;;;;;22.33;5.60;;;15.20;57.20;;;;;;5088944;28;20312;-87
2023/04/13 00:15:42;;;;;;;22.90;5.57;;;15.20;57.20;;;;;;5088519;28;20206;-89
2023/04/13 00:18:10;;;;;;;23.60;5.23;;;15.20;57.20;;;;;;5092943;28;20565;-89
2023/04/13 00:20:37;;;;;;;25.43;5.43;;;15.20;57.20;;;;;;5086600;28;20200;-89
2023/04/13 00:23:06;;;;;;;25.60;5.77;;;15.20;57.20;;;;;;5088671;28;20230;-88
2023/04/13 00:25:33;;;;;;;29.53;5.60;;;15.20;57.20;;;;;;5105867;28;20238;-89
2023/04/13 00:28:03;;;;;;;23.20;5.40;;;15.20;57.20;;;;;;5092445;28;20228;-88
2023/04/13 00:30:30;;;;;;;23.87;5.00;;;15.10;57.10;;;;;;5091902;28;20202;-88
2023/04/13 00:32:57;;;;;;;22.23;4.63;;;15.10;57.10;;;;;;5105736;28;20198;-88
2023/04/13 00:35:25;;;;;;;25.90;5.53;;;15.10;57.10;;;;;;5108919;28;20689;-87
2023/04/13 00:37:53;;;;;;;23.63;5.10;;;15.20;57.30;;;;;;5100253;28;20263;-88
2023/04/13 00:40:21;;;;;;;31.87;5.87;;;15.10;57.10;;;;;;5108885;28;20213;-87
2023/04/13 00:42:50;;;;;;;20.83;5.07;;;15.20;57.20;;;;;;5108106;28;20216;-87
2023/04/13 00:45:18;;;;;;;23.70;5.43;;;15.10;57.10;;;;;;5100066;28;20618;-88
2023/04/13 00:47:48;;;;;;;29.23;6.20;;;15.20;57.20;;;;;;5100824;28;20698;-89
2023/04/13 00:50:20;;;;;;;23.70;5.37;;;15.10;57.10;;;;;;5098929;27;20194;-88
2023/04/13 00:52:48;;;;;;;25.80;5.60;;;15.10;57.20;;;;;;5110818;28;20228;-88
2023/04/13 00:55:19;;;;;;;30.00;6.00;;;15.30;57.30;;;;;;5099846;28;20205;-88
2023/04/13 00:57:51;;;;;;;60.17;8.27;;;15.10;57.20;;;;;;5095142;28;20298;-88
2023/04/13 01:00:19;;;;;;;34.50;6.43;;;15.10;57.20;;;;;;5092810;28;20199;-88
2023/04/13 01:02:46;;;;;;;48.73;6.97;;;15.10;57.20;;;;;;5110949;28;20641;-89
2023/04/13 01:05:15;;;;;;;57.30;8.13;;;15.10;57.20;;;;;;5101608;28;20205;-88
2023/04/13 01:07:54;;;;;;;38.50;5.90;;;15.10;57.50;;;;;;5098484;28;20194;-88
2023/04/13 01:10:25;;;;;;;43.73;7.07;;;15.10;57.20;;;;;;5098943;28;20205;-89
2023/04/13 01:13:04;;;;;;;41.30;6.70;;;15.10;57.20;;;;;;5114847;28;20227;-88
2023/04/13 01:15:36;;;;;;;52.53;7.33;;;15.20;57.30;;;;;;5119987;28;20234;-89
2023/04/13 01:18:07;;;;;;;16.20;4.70;;;15.00;57.10;;;;;;5106627;28;20206;-89
2023/04/13 01:20:36;;;;;;;29.20;6.03;;;15.10;57.20;;;;;;5103397;28;20225;-88
2023/04/13 01:23:08;;;;;;;27.63;6.03;;;15.10;57.30;;;;;;5115847;28;20257;-88
2023/04/13 01:25:40;;;;;;;40.87;6.63;;;15.10;57.20;;;;;;5109752;28;20194;-88
2023/04/13 01:28:15;;;;;;;18.57;4.87;;;15.10;57.20;;;;;;5128582;28;20700;-89
2023/04/13 01:30:43;;;;;;;27.23;5.73;;;15.00;57.20;;;;;;5120791;28;20209;-89
2023/04/13 01:33:16;;;;;;;34.90;5.97;;;15.00;57.20;;;;;;5117640;28;20194;-88
2023/04/13 01:35:45;;;;;;;25.23;5.40;;;15.00;57.20;;;;;;5106410;28;20193;-89
2023/04/13 01:38:24;;;;;;;21.27;5.33;;;15.00;57.20;;;;;;5101819;28;20203;-89
2023/04/13 01:40:53;;;;;;;19.53;5.10;;;15.00;57.20;;;;;;5098919;28;20237;-89
2023/04/13 01:43:29;;;;;;;39.53;6.63;;;15.00;57.20;;;;;;5095217;28;20197;-88
2023/04/13 01:46:01;;;;;;;26.13;5.37;;;15.00;57.20;;;;;;5096159;28;20241;-89
2023/04/13 01:48:33;;;;;;;38.83;6.37;;;15.00;57.20;;;;;;5093847;28;20234;-88
2023/04/13 01:51:06;;;;;;;18.47;5.03;;;15.00;57.20;;;;;;5104772;28;20198;-89
2023/04/13 01:53:41;;;;;;;22.43;5.00;;;15.00;57.20;;;;;;5109898;28;20209;-89
2023/04/13 01:56:11;;;;;;;16.70;4.53;;;14.90;57.10;;;;;;5094141;27;20211;-89
2023/04/13 01:58:42;;;;;;;17.93;4.90;;;15.00;57.20;;;;;;5093316;28;20225;-89
2023/04/13 02:01:16;;;;;;;17.07;4.57;;;15.00;57.20;;;;;;5092205;28;20678;-89
2023/04/13 02:03:44;;;;;;;24.87;5.53;;;15.00;57.20;;;;;;5099196;28;20211;-89
2023/04/13 02:06:17;;;;;;;17.77;4.60;;;15.00;57.20;;;;;;5092747;28;20212;-89
2023/04/13 02:08:52;;;;;;;35.83;5.87;;;14.90;57.20;;;;;;5097162;28;20584;-89
2023/04/13 02:11:20;;;;;;;29.90;5.83;;;14.90;57.20;;;;;;5112131;28;20212;-89
2023/04/13 02:13:51;;;;;;;29.13;5.57;;;14.90;57.20;;;;;;5092063;28;20706;-89
2023/04/13 02:16:20;;;;;;;20.97;4.80;;;14.90;57.20;;;;;;5092326;28;20216;-89
2023/04/13 02:18:48;;;;;;;20.90;4.90;;;15.00;57.20;;;;;;5091035;28;20210;-90
2023/04/13 02:21:15;;;;;;;17.13;4.50;;;14.90;57.20;;;;;;5104905;28;20215;-90
2023/04/13 02:23:42;;;;;;;25.33;5.23;;;14.90;57.20;;;;;;5098081;28;20203;-89
2023/04/13 02:26:11;;;;;;;21.77;4.93;;;14.90;57.80;;;;;;5090497;28;20565;-89
2023/04/13 02:28:40;;;;;;;10.50;4.30;;;14.90;57.20;;;;;;5091442;28;20215;-90
2023/04/13 02:31:15;;;;;;;20.53;5.07;;;14.90;57.20;;;;;;5093543;28;20289;-90
2023/04/13 02:33:43;;;;;;;21.27;4.87;;;14.90;57.80;;;;;;5105845;28;20229;-89
2023/04/13 02:36:12;;;;;;;24.53;5.23;;;14.90;57.20;;;;;;5102851;28;20199;-88
2023/04/13 02:38:41;;;;;;;22.47;5.20;;;14.90;57.20;;;;;;5099816;28;20226;-89
2023/04/13 02:41:10;;;;;;;27.30;5.60;;;14.90;57.20;;;;;;5098433;28;20199;-89
2023/04/13 02:43:45;;;;;;;35.97;6.17;;;14.80;57.70;;;;;;5093117;28;20651;-90
2023/04/13 02:46:14;;;;;;;27.33;5.13;;;14.90;57.20;;;;;;5090257;27;20630;-89
2023/04/13 02:48:41;;;;;;;28.50;5.47;;;14.90;57.20;;;;;;5095379;28;20320;-89
2023/04/13 02:51:11;;;;;;;23.33;5.00;;;14.80;57.10;;;;;;5093597;28;20567;-89
2023/04/13 02:53:38;;;;;;;24.47;5.10;;;14.80;57.10;;;;;;5100884;28;20311;-90
2023/04/13 02:56:13;;;;;;;24.87;5.20;;;14.80;57.10;;;;;;5095220;28;20206;-89
2023/04/13 02:58:40;;;;;;;30.37;5.77;;;14.90;57.20;;;;;;5098506;28;20213;-89
2023/04/13 03:01:11;;;;;;;17.90;4.50;;;14.80;57.10;;;;;;5092372;28;20201;-89
2023/04/13 03:03:41;;;;;;;20.13;4.80;;;14.80;57.10;;;;;;5102147;28;20225;-89
2023/04/13 03:06:08;;;;;;;32.60;5.77;;;14.80;57.10;;;;;;5106930;28;20642;-89
2023/04/13 03:08:35;;;;;;;18.57;5.20;;;14.80;57.10;;;;;;5104842;28;20211;-89
2023/04/13 03:11:05;;;;;;;19.00;4.67;;;14.70;57.00;;;;;;5096728;28;20253;-89
2023/04/13 03:13:32;;;;;;;18.67;4.57;;;14.70;57.10;;;;;;5109490;28;20200;-89
2023/04/13 03:16:10;;;;;;;17.03;4.63;;;14.70;57.10;;;;;;5096466;28;20213;-89
2023/04/13 03:18:38;;;;;;;22.27;4.70;;;14.70;57.10;;;;;;5096367;28;20206;-89
2023/04/13 03:21:07;;;;;;;20.03;5.23;;;14.70;57.10;;;;;;5100841;28;20592;-89
2023/04/13 03:23:37;;;;;;;37.43;6.47;;;14.70;57.10;;;;;;5092780;28;20209;-89
2023/04/13 03:26:05;;;;;;;15.33;4.33;;;14.70;57.10;;;;;;5102873;28;20650;-89
2023/04/13 03:28:31;;;;;;;22.07;4.83;;;14.70;57.10;;;;;;5093782;28;20204;-89
2023/04/13 03:31:00;;;;;;;15.43;4.63;;;14.70;57.10;;;;;;5092482;28;20194;-89
2023/04/13 03:33:27;;;;;;;18.63;4.80;;;14.70;57.10;;;;;;5110217;28;20199;-89
2023/04/13 03:35:54;;;;;;;18.23;4.67;;;14.70;57.10;;;;;;5097270;27;20782;-89
2023/04/13 03:38:23;;;;;;;17.27;4.63;;;14.60;57.10;;;;;;5099929;28;20213;-89
2023/04/13 03:40:51;;;;;;;17.13;4.40;;;14.60;57.10;;;;;;5102037;28;20202;-89
2023/04/13 03:43:18;;;;;;;18.33;4.80;;;14.60;57.10;;;;;;5092416;28;20306;-89
2023/04/13 03:45:48;;;;;;;18.63;4.50;;;14.60;57.10;;;;;;5101410;28;20216;-89
2023/04/13 03:48:15;;;;;;;20.87;4.83;;;14.60;57.10;;;;;;5113399;28;20673;-89
2023/04/13 03:50:42;;;;;;;18.33;4.47;;;14.60;57.10;;;;;;5105709;28;20357;-89
2023/04/13 03:53:09;;;;;;;14.97;4.67;;;14.60;57.10;;;;;;5110177;28;20206;-89
2023/04/13 03:55:40;;;;;;;21.53;5.07;;;14.60;57.10;;;;;;5098135;28;20203;-89
2023/04/13 03:58:07;;;;;;;16.03;4.67;;;14.60;57.20;;;;;;5101774;28;20193;-89
2023/04/13 04:00:35;;;;;;;34.57;5.70;;;14.60;57.20;;;;;;5122456;28;20202;-89
2023/04/13 04:03:08;;;;;;;25.03;5.60;;;14.60;57.20;;;;;;5122438;28;20189;-89
2023/04/13 04:05:35;;;;;;;20.53;4.67;;;14.60;57.20;;;;;;5110658;28;20204;-89
2023/04/13 04:08:02;;;;;;;11.57;4.07;;;14.60;57.30;;;;;;5111376;28;20201;-89
2023/04/13 04:10:33;;;;;;;17.37;4.53;;;14.70;57.30;;;;;;5118220;28;20225;-90
2023/04/13 04:13:02;;;;;;;16.30;4.63;;;14.50;57.20;;;;;;5124210;28;20230;-89
2023/04/13 04:15:29;;;;;;;24.70;5.00;;;14.60;57.20;;;;;;5119940;28;20222;-90
2023/04/13 04:17:56;;;;;;;18.40;4.60;;;14.50;57.20;;;;;;5104732;28;20211;-89
2023/04/13 04:20:23;;;;;;;16.93;5.10;;;14.60;57.30;;;;;;5117653;28;20203;-90
2023/04/13 04:22:52;;;;;;;28.27;5.50;;;14.50;57.20;;;;;;5116292;28;20270;-89
2023/04/13 04:25:26;;;;;;;19.10;4.33;;;14.60;57.30;;;;;;5105140;28;20558;-89
2023/04/13 04:27:56;;;;;;;35.27;5.57;;;14.60;57.30;;;;;;5109243;28;20276;-89
2023/04/13 04:30:28;;;;;;;22.20;5.17;;;14.50;57.30;;;;;;5099054;28;20254;-90
2023/04/13 04:32:57;;;;;;;28.87;5.93;;;14.60;57.30;;;;;;5110089;28;20229;-90
2023/04/13 04:35:32;;;;;;;15.27;4.43;;;14.60;57.30;;;;;;5103558;28;20804;-90
2023/04/13 04:38:00;;;;;;;26.37;6.10;;;14.50;57.30;;;;;;5098832;28;20195;-90
2023/04/13 04:40:34;;;;;;;30.33;6.30;;;14.50;57.30;;;;;;5097757;28;20240;-90
2023/04/13 04:43:03;;;;;;;23.27;5.63;;;14.50;57.30;;;;;;5101502;28;20206;-90
2023/04/13 04:45:45;;;;;;;13.80;4.60;;;14.50;57.30;;;;;;5111690;28;20209;-89
2023/04/13 04:48:13;;;;;;;21.70;5.03;;;14.50;57.30;;;;;;5102951;28;20606;-89
2023/04/13 04:50:51;;;;;;;43.37;7.63;;;14.50;57.30;;;;;;5096272;28;20427;-91
2023/04/13 04:53:20;;;;;;;41.80;7.33;;;14.50;57.30;;;;;;5104625;28;20286;-90
2023/04/13 04:55:50;;;;;;;19.20;5.73;;;14.50;57.30;;;;;;5105445;28;20198;-92
2023/04/13 04:58:19;;;;;;;19.50;5.50;;;14.50;57.30;;;;;;5105349;28;20203;-90
2023/04/13 05:00:48;;;;;;;24.90;5.60;;;14.50;57.30;;;;;;5116198;28;20548;-89
2023/04/13 05:03:15;;;;;;;26.20;5.53;;;14.50;57.30;;;;;;5103194;28;20216;-94
2023/04/13 05:05:43;;;;;;;34.23;6.90;;;14.50;57.40;;;;;;5111527;28;20210;-95
2023/04/13 05:08:10;;;;;;;28.47;5.93;;;14.50;57.30;;;;;;5098515;28;20209;-92
2023/04/13 05:10:44;;;;;;;36.80;6.73;;;14.50;57.30;;;;;;5107237;28;20260;-95
2023/04/13 05:13:12;;;;;;;27.57;5.93;;;14.50;57.40;;;;;;5092432;28;20616;-92
2023/04/13 05:15:39;;;;;;;28.43;5.87;;;14.50;57.40;;;;;;5092221;28;20197;-94
2023/04/13 05:18:07;;;;;;;40.80;7.13;;;14.50;58.00;;;;;;5103026;28;20871;-94
2023/04/13 05:20:34;;;;;;;32.70;6.60;;;14.50;57.40;;;;;;5110091;28;20758;-93
2023/04/13 05:23:01;;;;;;;44.87;7.40;;;14.50;57.40;;;;;;5090524;28;20206;-89
2023/04/13 05:25:28;;;;;;;37.67;6.97;;;14.50;57.40;;;;;;5103676;28;20277;-90
2023/04/13 05:27:56;;;;;;;51.73;7.47;;;14.50;57.40;;;;;;5091585;28;20809;-89
2023/04/13 05:30:23;;;;;;;94.57;11.47;;;14.50;57.40;;;;;;5103317;28;20223;-90
2023/04/13 05:32:50;;;;;;;27.63;6.47;;;14.40;57.30;;;;;;5098429;28;20194;-88
2023/04/13 05:35:18;;;;;;;33.93;7.03;;;14.40;57.40;;;;;;5099509;28;20301;-88
2023/04/13 05:37:45;;;;;;;25.40;6.17;;;14.40;57.40;;;;;;5111212;28;20235;-88
2023/04/13 05:40:13;;;;;;;26.57;6.30;;;14.50;57.40;;;;;;5094927;28;20656;-88
2023/04/13 05:42:42;;;;;;;29.30;6.00;;;14.50;57.40;;;;;;5092041;28;20705;-89
2023/04/13 05:45:10;;;;;;;30.20;6.27;;;14.40;58.00;;;;;;5108590;28;20206;-88
2023/04/13 05:47:39;;;;;;;43.17;6.93;;;14.40;57.40;;;;;;5107995;28;20557;-89
2023/04/13 05:50:08;;;;;;;36.93;6.17;;;14.50;57.40;;;;;;5097064;28;20220;-86
2023/04/13 05:52:38;;;;;;;57.27;8.50;;;14.50;57.40;;;;;;5089170;28;20202;-85
2023/04/13 05:55:06;;;;;;;34.60;6.73;;;14.50;57.50;;;;;;5091190;28;20914;-87
2023/04/13 05:57:34;;;;;;;37.43;7.20;;;14.50;57.50;;;;;;5091002;28;20200;-85
2023/04/13 06:00:02;;;;;;;37.70;6.40;;;14.50;57.50;;;;;;5091015;28;20257;-87
2023/04/13 06:02:30;;;;;;;29.37;6.20;;;14.50;57.50;;;;;;5097090;28;20201;-88
2023/04/13 06:05:00;;;;;;;42.10;8.10;;;14.50;57.50;;;;;;5101678;28;20202;-90
2023/04/13 06:07:28;;;;;;;30.63;5.97;;;14.50;57.60;;;;;;5095028;28;20207;-88
2023/04/13 06:09:56;;;;;;;30.37;6.80;;;14.50;57.60;;;;;;5093685;28;20287;-89
2023/04/13 06:12:23;;;;;;;37.70;6.97;;;14.50;57.60;;;;;;5110485;27;20646;-88
2023/04/13 06:14:50;;;;;;;34.50;7.17;;;14.50;57.60;;;;;;5107387;28;20212;-88
2023/04/13 06:17:17;;;;;;;35.07;7.13;;;14.50;57.50;;;;;;5091058;28;20203;-87
2023/04/13 06:19:44;;;;;;;29.27;6.60;;;14.60;57.60;;;;;;5110169;28;20419;-88
2023/04/13 06:22:10;;;;;;;35.83;6.87;;;14.50;57.60;;;;;;5109464;28;20197;-88
2023/04/13 06:24:37;;;;;;;35.13;7.33;;;14.50;57.50;;;;;;5099979;28;20202;-88
2023/04/13 06:27:06;;;;;;;35.80;6.90;;;14.60;57.60;;;;;;5108209;28;20358;-88
2023/04/13 06:29:33;;;;;;;29.90;6.83;;;14.50;57.50;;;;;;5089581;28;20207;-89
2023/04/13 06:31:59;;;;;;;29.27;6.80;;;14.50;57.60;;;;;;5089517;28;20194;-88
2023/04/13 06:34:26;;;;;;;26.53;5.93;;;14.50;57.60;;;;;;5089694;28;20216;-88
2023/04/13 06:36:53;;;;;;;25.97;5.63;;;14.50;57.60;;;;;;5097235;28;20198;-88
2023/04/13 06:39:20;;;;;;;45.30;7.10;;;14.60;57.60;;;;;;5097241;27;20206;-88
2023/04/13 06:41:47;;;;;;;27.40;6.17;;;14.50;57.60;;;;;;5098422;28;20202;-91
2023/04/13 06:44:16;;;;;;;44.43;7.13;;;14.50;57.60;;;;;;5089654;28;20209;-88
2023/04/13 06:46:42;;;;;;;55.30;8.70;;;14.60;57.60;;;;;;5090351;28;20574;-89
2023/04/13 06:49:09;;;;;;;38.70;6.73;;;14.50;57.60;;;;;;5107940;28;20204;-89
2023/04/13 06:51:36;;;;;;;46.33;7.37;;;14.50;57.50;;;;;;5098033;28;20235;-90
2023/04/13 06:54:03;;;;;;;23.20;5.67;;;14.50;57.60;;;;;;5104117;28;20209;-89
2023/04/13 06:56:30;;;;;;;28.93;5.77;;;14.50;57.60;;;;;;5102716;28;20201;-89
2023/04/13 06:59:00;;;;;;;32.83;7.13;;;14.60;57.60;;;;;;5102737;28;20724;-91
2023/04/13 07:01:28;;;;;;;27.37;5.80;;;14.60;57.60;;;;;;5110151;27;20210;-92
2023/04/13 07:03:56;;;;;;;30.73;6.07;;;14.60;57.70;;;;;;5092808;28;20663;-89
2023/04/13 07:06:23;;;;;;;34.83;6.73;;;14.60;57.60;;;;;;5100652;28;20576;-89
2023/04/13 07:08:50;;;;;;;26.93;6.03;;;14.60;57.60;;;;;;5089288;28;20204;-89
2023/04/13 07:11:18;;;;;;;30.73;6.40;;;14.60;57.60;;;;;;5098683;28;20737;-93
2023/04/13 07:13:45;;;;;;;26.30;5.87;;;14.50;57.60;;;;;;5104039;28;20201;-95
2023/04/13 07:16:12;;;;;;;52.70;8.00;;;14.60;57.70;;;;;;5093530;28;20203;-95
2023/04/13 07:18:40;;;;;;;32.20;6.67;;;14.60;57.70;;;;;;5089372;28;20221;-95
2023/04/13 07:21:07;;;;;;;28.00;5.97;;;14.50;57.60;;;;;;5088858;28;20202;-90
2023/04/13 07:23:34;;;;;;;41.73;7.13;;;14.60;57.70;;;;;;5089481;28;20211;-94
2023/04/13 07:26:01;;;;;;;18.50;5.10;;;14.60;57.70;;;;;;5107810;28;20194;-90
2023/04/13 07:28:29;;;;;;;33.97;6.87;;;14.50;58.20;;;;;;5106499;28;20267;-92
2023/04/13 07:30:56;;;;;;;74.97;9.73;;;14.60;57.70;;;;;;5094069;28;20225;-93
2023/04/13 07:33:23;;;;;;;48.60;7.57;;;14.60;57.60;;;;;;5096642;28;20256;-93
2023/04/13 07:35:54;;;;;;;58.73;8.60;;;14.60;57.70;;;;;;5092276;28;20193;-91
2023/04/13 07:38:21;;;;;;;25.60;5.77;;;14.60;57.70;;;;;;5090269;28;20308;-94
2023/04/13 07:40:48;;;;;;;33.87;6.33;;;14.60;57.70;;;;;;5091108;28;20252;-94
2023/04/13 07:43:15;;;;;;;26.70;5.90;;;14.60;57.70;;;;;;5095460;28;20260;-94
2023/04/13 07:45:42;;;;;;;38.30;7.07;;;14.60;57.70;;;;;;5088348;28;20198;-93
2023/04/13 07:48:09;;;;;;;35.67;6.37;;;14.60;57.70;;;;;;5094731;28;20646;-94
2023/04/13 07:50:40;;;;;;;34.77;6.13;;;14.60;57.70;;;;;;5098491;28;20231;-93
2023/04/13 07:53:08;;;;;;;25.90;5.67;;;14.60;57.80;;;;;;5107096;28;20221;-94
2023/04/13 07:55:36;;;;;;;45.50;7.30;;;14.60;57.70;;;;;;5088871;28;20205;-93
2023/04/13 07:58:03;;;;;;;41.83;7.23;;;14.60;57.70;;;;;;5090171;28;20199;-93
2023/04/13 08:00:31;;;;;;;55.13;7.80;;;14.60;57.70;;;;;;5097370;28;20278;-93
2023/04/13 08:02:58;;;;;;;25.63;6.07;;;14.70;57.80;;;;;;5104011;28;20210;-95
2023/04/13 08:05:25;;;;;;;44.97;7.67;;;14.60;57.80;;;;;;5090091;28;20213;-94
2023/04/13 08:07:51;;;;;;;26.50;5.33;;;14.60;57.70;;;;;;5097858;28;20791;-94
2023/04/13 08:10:21;;;;;;;27.33;6.33;;;14.60;57.70;;;;;;5106826;28;20238;-91
2023/04/13 08:12:48;;;;;;;56.50;8.83;;;14.60;57.80;;;;;;5090091;28;20195;-93
2023/04/13 08:15:16;;;;;;;26.17;6.13;;;14.60;57.80;;;;;;5099575;28;20240;-95
2023/04/13 08:17:45;;;;;;;29.33;5.73;;;14.60;57.60;;;;;;5099792;28;20195;-95
2023/04/13 08:20:13;;;;;;;34.70;6.53;;;14.60;57.50;;;;;;5097635;28;20277;-95
2023/04/13 08:22:40;;;;;;;33.83;6.97;;;14.70;57.60;;;;;;5096423;28;20197;-95
2023/04/13 08:25:07;;;;;;;20.97;5.47;;;14.60;57.60;;;;;;5106331;28;20204;-95
2023/04/13 08:27:36;;;;;;;34.07;6.40;;;14.60;57.60;;;;;;5109214;28;20209;-92
2023/04/13 08:30:06;;;;;;;33.50;6.87;;;14.60;57.60;;;;;;5097245;28;20217;-94
2023/04/13 08:32:33;;;;;;;31.93;6.70;;;14.60;57.60;;;;;;5097023;28;20579;-94
2023/04/13 08:35:05;;;;;;;22.83;5.80;;;14.70;57.70;;;;;;5105571;28;20206;-94
2023/04/13 08:37:33;;;;;;;31.47;6.10;;;14.70;57.80;;;;;;5089441;28;20256;-93
2023/04/13 08:40:01;;;;;;;31.30;5.77;;;14.70;57.70;;;;;;5107352;28;20202;-91
2023/04/13 08:42:28;;;;;;;27.77;5.73;;;14.70;57.80;;;;;;5108073;28;20709;-93
2023/04/13 08:44:58;;;;;;;38.90;6.50;;;14.60;57.70;;;;;;5098004;28;20243;-95
2023/04/13 08:47:27;;;;;;;26.13;5.70;;;14.70;57.80;;;;;;5094545;28;20242;-93
2023/04/13 08:49:57;;;;;;;35.07;6.43;;;14.70;57.80;;;;;;5103468;28;20214;-95
2023/04/13 08:52:24;;;;;;;37.90;6.23;;;14.70;57.90;;;;;;5111818;28;20209;-91
2023/04/13 08:54:53;;;;;;;44.80;7.23;;;14.70;57.90;;;;;;5111939;28;20211;-95
2023/04/13 08:57:21;;;;;;;34.10;6.13;;;14.70;57.90;;;;;;5112948;28;20196;-93
2023/04/13 08:59:50;;;;;;;27.07;5.43;;;14.70;57.90;;;;;;5107729;28;20681;-95
2023/04/13 09:02:23;;;;;;;25.57;5.43;;;14.70;57.90;;;;;;5095506;28;20202;-94
2023/04/13 09:04:51;;;;;;;33.53;6.23;;;14.70;57.90;;;;;;5099078;28;20198;-94
2023/04/13 09:07:25;;;;;;;21.33;5.43;;;14.80;58.00;;;;;;5092421;28;20202;-93
2023/04/13 09:09:56;;;;;;;28.03;6.17;;;14.80;58.00;;;;;;5093219;28;20206;-90
2023/04/13 09:12:23;;;;;;;30.97;5.73;;;14.80;58.00;;;;;;5091387;28;20233;-90
2023/04/13 09:14:50;;;;;;;46.40;6.83;;;14.80;58.00;;;;;;5105458;28;20208;-90
2023/04/13 09:17:26;;;;;;;21.77;4.97;;;14.80;58.00;;;;;;5091490;28;20198;-90
2023/04/13 09:19:56;;;;;;;29.33;6.10;;;14.80;58.00;;;;;;5091253;28;20206;-91
2023/04/13 09:22:24;;;;;;;24.83;5.37;;;14.90;58.00;;;;;;5103956;28;20240;-91
2023/04/13 09:24:51;;;;;;;37.03;6.80;;;14.90;58.00;;;;;;5110544;27;20605;-94
2023/04/13 09:27:19;;;;;;;26.67;5.67;;;14.90;58.00;;;;;;5110390;28;20209;-91
2023/04/13 09:29:51;;;;;;;25.37;5.97;;;14.90;58.00;;;;;;5091753;28;20210;-91
2023/04/13 09:32:22;;;;;;;38.03;6.30;;;15.00;58.20;;;;;;5091021;28;20958;-90
2023/04/13 09:35:05;;;;;;;25.97;5.63;;;15.00;58.70;;;;;;5107154;28;20209;-91
2023/04/13 09:37:32;;;;;;;23.83;5.33;;;15.00;58.20;;;;;;5111464;28;20231;-91
2023/04/13 09:40:10;;;;;;;45.37;6.93;;;15.10;58.20;;;;;;5104308;28;20267;-92
2023/04/13 09:42:37;;;;;;;34.20;6.10;;;15.10;58.20;;;;;;5091467;28;20234;-92
2023/04/13 09:45:06;;;;;;;29.63;6.00;;;15.20;58.30;;;;;;5109775;28;20213;-91
2023/04/13 09:47:39;;;;;;;27.07;5.63;;;15.10;58.20;;;;;;5110716;28;20209;-90
2023/04/13 09:50:17;;;;;;;28.27;5.53;;;15.20;58.30;;;;;;5101588;28;20210;-90
2023/04/13 09:52:45;;;;;;;34.50;6.13;;;15.20;58.30;;;;;;5111088;28;20198;-90
2023/04/13 09:55:16;;;;;;;31.17;6.37;;;15.20;58.30;;;;;;5093433;28;20253;-90
2023/04/13 09:57:43;;;;;;;28.07;5.70;;;15.30;58.40;;;;;;5090860;28;20195;-89
2023/04/13 10:00:39;;;;;;;32.00;5.87;;;15.30;58.30;;;;;;5089991;28;20320;-90
2023/04/13 10:03:10;;;;;;;37.73;6.40;;;15.40;58.40;;;;;;5090273;28;20207;-90
2023/04/13 10:05:41;;;;;;;32.50;5.57;;;15.40;58.40;;;;;;5091093;28;20214;-90
2023/04/13 10:08:09;;;;;;;32.93;6.10;;;15.40;58.50;;;;;;5102146;28;20216;-91
2023/04/13 10:10:38;;;;;;;32.10;6.43;;;15.40;58.40;;;;;;5094143;28;20200;-92
2023/04/13 10:13:10;;;;;;;28.37;5.10;;;15.40;58.40;;;;;;5090305;28;20294;-91
2023/04/13 10:16:01;;;;;;;28.20;5.47;;;15.50;58.50;;;;;;5108001;28;20281;-91
2023/04/13 10:18:42;;;;;;;30.87;6.13;;;15.50;58.50;;;;;;5102911;28;20732;-90
2023/04/13 10:21:12;;;;;;;25.13;5.67;;;15.40;58.30;;;;;;5090951;28;20214;-91
2023/04/13 10:23:39;;;;;;;80.17;9.27;;;15.50;58.40;;;;;;5089163;28;20823;-90
2023/04/13 10:26:06;;;;;;;39.37;6.37;;;15.70;58.50;;;;;;5096235;28;20212;-90
2023/04/13 10:28:42;;;;;;;32.43;6.47;;;15.60;58.40;;;;;;5091994;28;20202;-90
2023/04/13 10:31:09;;;;;;;31.33;5.93;;;15.60;58.50;;;;;;5089694;28;20299;-91
2023/04/13 10:33:47;;;;;;;36.37;6.57;;;15.60;58.40;;;;;;5090074;28;20667;-91
2023/04/13 10:36:15;;;;;;;31.13;5.93;;;15.70;58.50;;;;;;5089297;28;20208;-91
2023/04/13 10:38:46;;;;;;;29.87;5.90;;;15.70;58.50;;;;;;5089471;28;20220;-92
2023/04/13 10:41:23;;;;;;;26.10;5.37;;;15.70;58.50;;;;;;5100835;28;20205;-92
2023/04/13 10:44:00;;;;;;;29.00;5.70;;;15.70;58.50;;;;;;5100440;28;20301;-91
2023/04/13 10:46:27;;;;;;;32.23;6.23;;;15.80;58.60;;;;;;5089803;28;20206;-92
2023/04/13 10:48:57;;;;;;;32.20;6.57;;;15.80;58.50;;;;;;5091888;28;20671;-92
2023/04/13 10:51:42;;;;;;;33.60;6.13;;;15.90;58.60;;;;;;5109684;28;20234;-91
2023/04/13 10:54:10;;;;;;;25.53;4.97;;;15.80;58.60;;;;;;5103382;28;20204;-91
2023/04/13 10:56:37;;;;;;;31.07;6.50;;;15.90;58.60;;;;;;5101892;28;20264;-92
2023/04/13 10:59:06;;;;;;;42.03;7.67;;;15.90;58.60;;;;;;5107610;28;20192;-92
2023/04/13 11:01:35;;;;;;;24.93;5.77;;;15.90;58.60;;;;;;5099709;28;20680;-91
2023/04/13 11:04:05;;;;;;;32.43;6.27;;;16.00;58.70;;;;;;5093480;28;20191;-89
2023/04/13 11:06:37;;;;;;;31.73;6.60;;;16.00;58.70;;;;;;5089720;28;20256;-91
2023/04/13 11:09:06;;;;;;;36.80;6.40;;;16.00;58.70;;;;;;5091237;28;20209;-94
2023/04/13 11:11:33;;;;;;;30.60;6.13;;;16.00;58.60;;;;;;5089927;28;20222;-94
2023/04/13 11:14:02;;;;;;;39.93;7.03;;;16.00;58.60;;;;;;5096819;28;20213;-94
2023/04/13 11:16:29;;;;;;;33.33;6.27;;;16.00;58.60;;;;;;5089637;28;20205;-92
2023/04/13 11:19:03;;;;;;;54.63;7.80;;;16.10;58.70;;;;;;5088812;28;20675;-94
2023/04/13 11:21:31;;;;;;;31.47;5.77;;;16.10;58.70;;;;;;5104254;28;20627;-95
2023/04/13 11:24:00;;;;;;;22.10;5.03;;;16.20;58.80;;;;;;5091444;28;20207;-94
2023/04/13 11:26:33;;;;;;;32.70;6.50;;;16.20;58.80;;;;;;5089257;28;20201;-95
2023/04/13 11:29:02;;;;;;;27.30;5.77;;;16.20;58.80;;;;;;5098459;28;20215;-95
2023/04/13 11:31:37;;;;;;;29.37;5.77;;;16.30;58.80;;;;;;5104947;28;20226;-95
2023/04/13 11:34:08;;;;;;;27.67;5.63;;;16.30;58.90;;;;;;5095083;28;20201;-94
2023/04/13 11:36:37;;;;;;;33.87;6.20;;;16.30;58.80;;;;;;5098921;28;20210;-92
2023/04/13 11:39:07;;;;;;;26.70;5.20;;;16.30;58.80;;;;;;5102503;28;20210;-90
2023/04/13 11:41:39;;;;;;;27.40;5.30;;;16.40;58.90;;;;;;5109193;28;20196;-92
2023/04/13 11:44:06;;;;;;;51.97;7.20;;;16.40;58.90;;;;;;5107311;28;20244;-90
2023/04/13 11:46:33;;;;;;;45.40;7.03;;;16.50;58.90;;;;;;5099767;28;20188;-90
2023/04/13 11:49:01;;;;;;;24.23;5.80;;;16.40;58.80;;;;;;5104594;28;20195;-89
2023/04/13 11:51:29;;;;;;;30.83;5.83;;;16.50;59.00;;;;;;5089663;28;20221;-91
2023/04/13 11:53:57;;;;;;;28.40;5.17;;;16.50;58.90;;;;;;5087580;28;20210;-94
2023/04/13 11:56:24;;;;;;;38.37;6.70;;;16.50;58.90;;;;;;5088262;28;20257;-94
2023/04/13 11:58:54;;;;;;;34.67;6.07;;;16.60;58.90;;;;;;5096923;28;20217;-91
2023/04/13 12:01:21;;;;;;;57.67;8.10;;;16.60;58.90;;;;;;5104272;28;20204;-91
2023/04/13 12:03:48;;;;;;;37.10;6.30;;;16.60;58.90;;;;;;5093888;28;20749;-92
2023/04/13 12:06:16;;;;;;;29.80;5.90;;;16.70;59.00;;;;;;5095892;27;20213;-90
2023/04/13 12:08:43;;;;;;;47.30;6.87;;;16.70;59.00;;;;;;5093187;28;20242;-91
2023/04/13 12:11:11;;;;;;;24.43;5.63;;;16.80;59.00;;;;;;5098539;28;20739;-93
2023/04/13 12:13:43;;;;;;;34.37;5.97;;;16.80;59.00;;;;;;5089454;28;21065;-92
2023/04/13 12:16:23;;;;;;;22.13;5.10;;;16.80;59.10;;;;;;5102556;28;20206;-93
2023/04/13 12:18:50;;;;;;;27.40;5.23;;;16.80;59.00;;;;;;5100164;28;20209;-93
2023/04/13 12:21:19;;;;;;;27.80;5.77;;;16.90;59.00;;;;;;5093226;28;20300;-93
2023/04/13 12:23:53;;;;;;;34.97;6.77;;;17.00;59.10;;;;;;5092075;28;20286;-92
2023/04/13 12:26:20;;;;;;;35.37;6.07;;;16.90;59.00;;;;;;5105749;28;20202;-93
2023/04/13 12:28:47;;;;;;;31.93;5.87;;;17.00;59.10;;;;;;5113022;27;20542;-92
2023/04/13 12:31:16;;;;;;;31.93;5.43;;;17.00;59.00;;;;;;5094160;28;20587;-91
2023/04/13 12:33:43;;;;;;;32.00;6.50;;;17.00;59.00;;;;;;5092285;28;20208;-91
2023/04/13 12:36:10;;;;;;;25.90;5.33;;;17.10;59.10;;;;;;5102998;28;20297;-91
2023/04/13 12:38:37;;;;;;;36.33;6.33;;;17.10;59.10;;;;;;5096716;28;20228;-91
2023/04/13 12:41:08;;;;;;;30.07;5.27;;;17.10;59.00;;;;;;5101697;28;20252;-92
2023/04/13 12:43:35;;;;;;;33.10;6.10;;;17.10;59.00;;;;;;5112363;27;20221;-92
2023/04/13 12:46:02;;;;;;;70.90;8.53;;;17.20;59.00;;;;;;5104139;28;20204;-90